sensor_id;sensor_type;location;lat;lon;timestamp;temperature;humidity
69436;SHT31;56625;54.322;18.582;2023-04-25T00:00:23;12.36;82.45
69436;SHT31;56625;54.322;18.582;2023-04-25T00:03:11;12.32;82.41
69436;SHT31;56625;54.322;18.582;2023-04-25T00:05:39;12.31;82.41
69436;SHT31;56625;54.322;18.582;2023-04-25T00:08:07;12.30;82.41
69436;SHT31;56625;54.322;18.582;2023-04-25T00:10:35;12.31;82.53
69436;SHT31;56625;54.322;18.582;2023-04-25T00:13:03;12.31;82.56
69436;SHT31;56625;54.322;18.582;2023-04-25T00:15:31;12.31;82.52
69436;SHT31;56625;54.322;18.582;2023-04-25T00:17:59;12.29;82.48
69436;SHT31;56625;54.322;18.582;2023-04-25T00:20:27;12.30;82.42
69436;SHT31;56625;54.322;18.582;2023-04-25T00:22:55;12.31;82.37
69436;SHT31;56625;54.322;18.582;2023-04-25T00:25:23;12.33;82.44
69436;SHT31;56625;54.322;18.582;2023-04-25T00:27:51;12.30;82.66
69436;SHT31;56625;54.322;18.582;2023-04-25T00:30:19;12.27;82.80
69436;SHT31;56625;54.322;18.582;2023-04-25T00:32:46;12.23;82.99
69436;SHT31;56625;54.322;18.582;2023-04-25T00:35:15;12.19;83.19
69436;SHT31;56625;54.322;18.582;2023-04-25T00:37:43;12.18;83.28
69436;SHT31;56625;54.322;18.582;2023-04-25T00:40:11;12.17;83.59
69436;SHT31;56625;54.322;18.582;2023-04-25T00:42:39;12.18;83.68
69436;SHT31;56625;54.322;18.582;2023-04-25T00:45:08;12.16;83.87
69436;SHT31;56625;54.322;18.582;2023-04-25T00:47:42;12.17;84.03
69436;SHT31;56625;54.322;18.582;2023-04-25T00:50:11;12.18;84.10
69436;SHT31;56625;54.322;18.582;2023-04-25T00:52:40;12.17;84.30
69436;SHT31;56625;54.322;18.582;2023-04-25T00:55:11;12.19;84.43
69436;SHT31;56625;54.322;18.582;2023-04-25T00:57:40;12.18;84.35
69436;SHT31;56625;54.322;18.582;2023-04-25T01:00:09;12.19;84.39
69436;SHT31;56625;54.322;18.582;2023-04-25T01:02:38;12.19;84.47
69436;SHT31;56625;54.322;18.582;2023-04-25T01:05:10;12.21;84.43
69436;SHT31;56625;54.322;18.582;2023-04-25T01:07:39;12.23;84.41
69436;SHT31;56625;54.322;18.582;2023-04-25T01:10:08;12.25;84.37
69436;SHT31;56625;54.322;18.582;2023-04-25T01:12:36;12.27;84.31
69436;SHT31;56625;54.322;18.582;2023-04-25T01:15:05;12.26;84.41
69436;SHT31;56625;54.322;18.582;2023-04-25T01:17:34;12.23;84.46
69436;SHT31;56625;54.322;18.582;2023-04-25T01:20:03;12.22;84.41
69436;SHT31;56625;54.322;18.582;2023-04-25T01:22:33;12.21;84.38
69436;SHT31;56625;54.322;18.582;2023-04-25T01:25:01;12.23;84.41
69436;SHT31;56625;54.322;18.582;2023-04-25T01:27:29;12.21;84.68
69436;SHT31;56625;54.322;18.582;2023-04-25T01:29:58;12.18;84.84
69436;SHT31;56625;54.322;18.582;2023-04-25T01:32:27;12.18;84.89
69436;SHT31;56625;54.322;18.582;2023-04-25T01:34:55;12.15;84.97
69436;SHT31;56625;54.322;18.582;2023-04-25T01:37:23;12.15;85.03
69436;SHT31;56625;54.322;18.582;2023-04-25T01:39:50;12.15;85.11
69436;SHT31;56625;54.322;18.582;2023-04-25T01:42:20;12.13;85.11
69436;SHT31;56625;54.322;18.582;2023-04-25T01:44:47;12.11;85.05
69436;SHT31;56625;54.322;18.582;2023-04-25T01:47:15;12.09;85.10
69436;SHT31;56625;54.322;18.582;2023-04-25T01:49:43;12.09;85.02
69436;SHT31;56625;54.322;18.582;2023-04-25T01:52:11;12.08;85.03
69436;SHT31;56625;54.322;18.582;2023-04-25T01:54:38;12.08;85.01
69436;SHT31;56625;54.322;18.582;2023-04-25T01:57:11;12.07;85.09
69436;SHT31;56625;54.322;18.582;2023-04-25T01:59:39;12.06;85.05
69436;SHT31;56625;54.322;18.582;2023-04-25T02:02:09;12.06;85.15
69436;SHT31;56625;54.322;18.582;2023-04-25T02:04:37;12.04;85.26
69436;SHT31;56625;54.322;18.582;2023-04-25T02:07:05;12.01;85.41
69436;SHT31;56625;54.322;18.582;2023-04-25T02:09:33;11.98;85.60
69436;SHT31;56625;54.322;18.582;2023-04-25T02:12:00;11.94;85.69
69436;SHT31;56625;54.322;18.582;2023-04-25T02:14:29;11.93;85.73
69436;SHT31;56625;54.322;18.582;2023-04-25T02:16:57;11.93;85.70
69436;SHT31;56625;54.322;18.582;2023-04-25T02:19:26;11.92;85.74
69436;SHT31;56625;54.322;18.582;2023-04-25T02:21:54;11.93;85.78
69436;SHT31;56625;54.322;18.582;2023-04-25T02:24:22;11.94;85.83
69436;SHT31;56625;54.322;18.582;2023-04-25T02:26:50;11.94;85.83
69436;SHT31;56625;54.322;18.582;2023-04-25T02:29:18;11.95;85.89
69436;SHT31;56625;54.322;18.582;2023-04-25T02:31:45;11.95;86.07
69436;SHT31;56625;54.322;18.582;2023-04-25T02:34:13;11.94;86.12
69436;SHT31;56625;54.322;18.582;2023-04-25T02:36:41;11.93;86.03
69436;SHT31;56625;54.322;18.582;2023-04-25T02:39:09;11.91;86.06
69436;SHT31;56625;54.322;18.582;2023-04-25T02:41:38;11.92;85.99
69436;SHT31;56625;54.322;18.582;2023-04-25T02:44:05;11.91;85.89
69436;SHT31;56625;54.322;18.582;2023-04-25T02:46:33;11.89;85.98
69436;SHT31;56625;54.322;18.582;2023-04-25T02:49:06;11.89;85.92
69436;SHT31;56625;54.322;18.582;2023-04-25T02:51:34;11.88;86.00
69436;SHT31;56625;54.322;18.582;2023-04-25T02:54:02;11.88;85.99
69436;SHT31;56625;54.322;18.582;2023-04-25T02:56:30;11.87;86.00
69436;SHT31;56625;54.322;18.582;2023-04-25T02:58:58;11.86;86.01
69436;SHT31;56625;54.322;18.582;2023-04-25T03:01:26;11.84;85.94
69436;SHT31;56625;54.322;18.582;2023-04-25T03:03:54;11.82;86.03
69436;SHT31;56625;54.322;18.582;2023-04-25T03:06:22;11.80;85.96
69436;SHT31;56625;54.322;18.582;2023-04-25T03:08:50;11.79;85.98
69436;SHT31;56625;54.322;18.582;2023-04-25T03:11:18;11.78;85.90
69436;SHT31;56625;54.322;18.582;2023-04-25T03:13:47;11.79;85.91
69436;SHT31;56625;54.322;18.582;2023-04-25T03:16:16;11.78;85.96
69436;SHT31;56625;54.322;18.582;2023-04-25T03:18:44;11.78;85.88
69436;SHT31;56625;54.322;18.582;2023-04-25T03:21:12;11.78;85.85
69436;SHT31;56625;54.322;18.582;2023-04-25T03:23:39;11.79;85.84
69436;SHT31;56625;54.322;18.582;2023-04-25T03:26:07;11.80;85.84
69436;SHT31;56625;54.322;18.582;2023-04-25T03:28:35;11.78;85.78
69436;SHT31;56625;54.322;18.582;2023-04-25T03:31:03;11.77;85.73
69436;SHT31;56625;54.322;18.582;2023-04-25T03:33:31;11.78;85.79
69436;SHT31;56625;54.322;18.582;2023-04-25T03:35:59;11.77;85.90
69436;SHT31;56625;54.322;18.582;2023-04-25T03:38:27;11.77;85.88
69436;SHT31;56625;54.322;18.582;2023-04-25T03:40:55;11.77;85.93
69436;SHT31;56625;54.322;18.582;2023-04-25T03:43:23;11.77;85.94
69436;SHT31;56625;54.322;18.582;2023-04-25T03:45:51;11.77;86.06
69436;SHT31;56625;54.322;18.582;2023-04-25T03:48:19;11.73;86.24
69436;SHT31;56625;54.322;18.582;2023-04-25T03:50:49;11.62;85.07
69436;SHT31;56625;54.322;18.582;2023-04-25T03:53:17;11.52;84.34
69436;SHT31;56625;54.322;18.582;2023-04-25T03:55:45;11.42;83.63
69436;SHT31;56625;54.322;18.582;2023-04-25T03:58:13;11.23;82.11
69436;SHT31;56625;54.322;18.582;2023-04-25T04:00:41;11.00;81.81
69436;SHT31;56625;54.322;18.582;2023-04-25T04:03:09;10.80;81.44
69436;SHT31;56625;54.322;18.582;2023-04-25T04:05:38;10.63;81.06
69436;SHT31;56625;54.322;18.582;2023-04-25T04:08:08;10.49;81.45
69436;SHT31;56625;54.322;18.582;2023-04-25T04:10:35;10.35;81.64
69436;SHT31;56625;54.322;18.582;2023-04-25T04:13:03;10.23;82.07
69436;SHT31;56625;54.322;18.582;2023-04-25T04:15:31;10.14;82.36
69436;SHT31;56625;54.322;18.582;2023-04-25T04:18:00;10.11;82.60
69436;SHT31;56625;54.322;18.582;2023-04-25T04:20:30;10.06;82.60
69436;SHT31;56625;54.322;18.582;2023-04-25T04:22:58;10.03;82.61
69436;SHT31;56625;54.322;18.582;2023-04-25T04:25:26;9.98;82.58
69436;SHT31;56625;54.322;18.582;2023-04-25T04:27:54;9.95;82.68
69436;SHT31;56625;54.322;18.582;2023-04-25T04:30:22;9.92;82.88
69436;SHT31;56625;54.322;18.582;2023-04-25T04:32:51;9.90;83.21
69436;SHT31;56625;54.322;18.582;2023-04-25T04:35:20;9.90;83.49
69436;SHT31;56625;54.322;18.582;2023-04-25T04:37:47;9.88;83.71
69436;SHT31;56625;54.322;18.582;2023-04-25T04:40:15;9.88;83.78
69436;SHT31;56625;54.322;18.582;2023-04-25T04:42:44;9.86;83.86
69436;SHT31;56625;54.322;18.582;2023-04-25T04:45:15;9.85;83.81
69436;SHT31;56625;54.322;18.582;2023-04-25T04:47:43;9.86;83.95
69436;SHT31;56625;54.322;18.582;2023-04-25T04:50:12;9.85;84.01
69436;SHT31;56625;54.322;18.582;2023-04-25T04:52:40;9.85;84.03
69436;SHT31;56625;54.322;18.582;2023-04-25T04:55:08;9.86;83.96
69436;SHT31;56625;54.322;18.582;2023-04-25T04:57:36;9.84;84.09
69436;SHT31;56625;54.322;18.582;2023-04-25T05:00:06;9.85;84.11
69436;SHT31;56625;54.322;18.582;2023-04-25T05:02:38;9.88;84.09
69436;SHT31;56625;54.322;18.582;2023-04-25T05:05:07;9.93;84.06
69436;SHT31;56625;54.322;18.582;2023-04-25T05:07:35;9.96;83.95
69436;SHT31;56625;54.322;18.582;2023-04-25T05:10:04;9.98;83.89
69436;SHT31;56625;54.322;18.582;2023-04-25T05:12:34;9.98;83.80
69436;SHT31;56625;54.322;18.582;2023-04-25T05:15:03;10.00;83.77
69436;SHT31;56625;54.322;18.582;2023-04-25T05:17:32;10.05;83.49
69436;SHT31;56625;54.322;18.582;2023-04-25T05:20:00;10.04;83.03
69436;SHT31;56625;54.322;18.582;2023-04-25T05:22:29;10.01;82.56
69436;SHT31;56625;54.322;18.582;2023-04-25T05:24:57;9.96;82.30
69436;SHT31;56625;54.322;18.582;2023-04-25T05:27:25;9.93;82.33
69436;SHT31;56625;54.322;18.582;2023-04-25T05:29:53;9.92;82.05
69436;SHT31;56625;54.322;18.582;2023-04-25T05:32:21;9.91;81.31
69436;SHT31;56625;54.322;18.582;2023-04-25T05:34:49;9.92;81.14
69436;SHT31;56625;54.322;18.582;2023-04-25T05:37:17;9.90;80.46
69436;SHT31;56625;54.322;18.582;2023-04-25T05:39:45;9.87;80.36
69436;SHT31;56625;54.322;18.582;2023-04-25T05:42:13;9.81;79.87
69436;SHT31;56625;54.322;18.582;2023-04-25T05:44:42;9.80;80.20
69436;SHT31;56625;54.322;18.582;2023-04-25T05:47:10;9.79;79.81
69436;SHT31;56625;54.322;18.582;2023-04-25T05:49:39;9.77;79.81
69436;SHT31;56625;54.322;18.582;2023-04-25T05:52:07;9.76;79.75
69436;SHT31;56625;54.322;18.582;2023-04-25T05:54:35;9.72;79.94
69436;SHT31;56625;54.322;18.582;2023-04-25T05:57:03;9.71;79.91
69436;SHT31;56625;54.322;18.582;2023-04-25T05:59:31;9.68;79.76
69436;SHT31;56625;54.322;18.582;2023-04-25T06:01:59;9.66;79.92
69436;SHT31;56625;54.322;18.582;2023-04-25T06:04:28;9.64;79.79
69436;SHT31;56625;54.322;18.582;2023-04-25T06:06:57;9.60;79.88
69436;SHT31;56625;54.322;18.582;2023-04-25T06:09:34;9.57;79.75
69436;SHT31;56625;54.322;18.582;2023-04-25T06:12:02;9.54;79.53
69436;SHT31;56625;54.322;18.582;2023-04-25T06:14:32;9.50;79.11
69436;SHT31;56625;54.322;18.582;2023-04-25T06:17:02;9.48;79.17
69436;SHT31;56625;54.322;18.582;2023-04-25T06:19:35;9.41;78.84
69436;SHT31;56625;54.322;18.582;2023-04-25T06:22:04;9.36;78.89
69436;SHT31;56625;54.322;18.582;2023-04-25T06:24:31;9.31;78.63
69436;SHT31;56625;54.322;18.582;2023-04-25T06:27:00;9.31;78.92
69436;SHT31;56625;54.322;18.582;2023-04-25T06:29:28;9.34;79.14
69436;SHT31;56625;54.322;18.582;2023-04-25T06:31:56;9.35;79.21
69436;SHT31;56625;54.322;18.582;2023-04-25T06:34:24;9.34;79.01
69436;SHT31;56625;54.322;18.582;2023-04-25T06:36:52;9.33;78.93
69436;SHT31;56625;54.322;18.582;2023-04-25T06:39:20;9.31;79.03
69436;SHT31;56625;54.322;18.582;2023-04-25T06:41:50;9.31;79.18
69436;SHT31;56625;54.322;18.582;2023-04-25T06:44:18;9.37;79.35
69436;SHT31;56625;54.322;18.582;2023-04-25T06:46:46;9.38;79.10
69436;SHT31;56625;54.322;18.582;2023-04-25T06:49:14;9.35;79.30
69436;SHT31;56625;54.322;18.582;2023-04-25T06:51:42;9.38;79.40
69436;SHT31;56625;54.322;18.582;2023-04-25T06:54:10;9.43;79.49
69436;SHT31;56625;54.322;18.582;2023-04-25T06:56:38;9.49;78.82
69436;SHT31;56625;54.322;18.582;2023-04-25T06:59:06;9.52;78.22
69436;SHT31;56625;54.322;18.582;2023-04-25T07:01:34;9.55;78.14
69436;SHT31;56625;54.322;18.582;2023-04-25T07:04:02;9.61;77.72
69436;SHT31;56625;54.322;18.582;2023-04-25T07:06:31;9.70;77.82
69436;SHT31;56625;54.322;18.582;2023-04-25T07:08:58;9.82;77.59
69436;SHT31;56625;54.322;18.582;2023-04-25T07:11:26;9.93;76.61
69436;SHT31;56625;54.322;18.582;2023-04-25T07:13:54;9.96;76.12
69436;SHT31;56625;54.322;18.582;2023-04-25T07:16:22;9.97;75.73
69436;SHT31;56625;54.322;18.582;2023-04-25T07:18:50;9.94;75.80
69436;SHT31;56625;54.322;18.582;2023-04-25T07:21:19;9.91;75.27
69436;SHT31;56625;54.322;18.582;2023-04-25T07:23:47;9.87;75.15
69436;SHT31;56625;54.322;18.582;2023-04-25T07:26:15;9.82;74.74
69436;SHT31;56625;54.322;18.582;2023-04-25T07:28:42;9.81;75.12
69436;SHT31;56625;54.322;18.582;2023-04-25T07:31:10;9.83;75.40
69436;SHT31;56625;54.322;18.582;2023-04-25T07:33:38;9.82;74.72
69436;SHT31;56625;54.322;18.582;2023-04-25T07:36:07;9.78;74.66
69436;SHT31;56625;54.322;18.582;2023-04-25T07:38:35;9.72;74.31
69436;SHT31;56625;54.322;18.582;2023-04-25T07:41:03;9.69;74.45
69436;SHT31;56625;54.322;18.582;2023-04-25T07:43:31;9.67;74.30
69436;SHT31;56625;54.322;18.582;2023-04-25T07:45:59;9.67;74.00
69436;SHT31;56625;54.322;18.582;2023-04-25T07:48:26;9.68;74.31
69436;SHT31;56625;54.322;18.582;2023-04-25T07:50:54;9.71;74.48
69436;SHT31;56625;54.322;18.582;2023-04-25T07:53:21;9.76;74.54
69436;SHT31;56625;54.322;18.582;2023-04-25T07:55:49;9.79;74.22
69436;SHT31;56625;54.322;18.582;2023-04-25T07:58:18;9.79;73.52
69436;SHT31;56625;54.322;18.582;2023-04-25T08:00:49;9.82;74.01
69436;SHT31;56625;54.322;18.582;2023-04-25T08:03:17;9.92;73.34
69436;SHT31;56625;54.322;18.582;2023-04-25T08:05:45;10.00;73.23
69436;SHT31;56625;54.322;18.582;2023-04-25T08:08:14;10.04;73.23
69436;SHT31;56625;54.322;18.582;2023-04-25T08:10:41;10.08;72.88
69436;SHT31;56625;54.322;18.582;2023-04-25T08:13:09;10.13;72.48
69436;SHT31;56625;54.322;18.582;2023-04-25T08:15:37;10.21;72.19
69436;SHT31;56625;54.322;18.582;2023-04-25T08:18:05;10.33;72.31
69436;SHT31;56625;54.322;18.582;2023-04-25T08:20:33;10.45;71.84
69436;SHT31;56625;54.322;18.582;2023-04-25T08:23:01;10.60;71.44
69436;SHT31;56625;54.322;18.582;2023-04-25T08:25:29;10.77;70.27
69436;SHT31;56625;54.322;18.582;2023-04-25T08:27:57;10.88;70.09
69436;SHT31;56625;54.322;18.582;2023-04-25T08:30:27;10.97;69.92
69436;SHT31;56625;54.322;18.582;2023-04-25T08:32:54;11.01;69.11
69436;SHT31;56625;54.322;18.582;2023-04-25T08:35:22;11.00;67.92
69436;SHT31;56625;54.322;18.582;2023-04-25T08:37:50;11.03;68.48
69436;SHT31;56625;54.322;18.582;2023-04-25T08:40:18;11.10;68.38
69436;SHT31;56625;54.322;18.582;2023-04-25T08:42:53;11.14;68.10
69436;SHT31;56625;54.322;18.582;2023-04-25T08:45:23;11.17;67.92
69436;SHT31;56625;54.322;18.582;2023-04-25T08:47:55;11.24;68.29
69436;SHT31;56625;54.322;18.582;2023-04-25T08:50:25;11.30;67.58
69436;SHT31;56625;54.322;18.582;2023-04-25T08:52:54;11.39;67.42
69436;SHT31;56625;54.322;18.582;2023-04-25T08:55:22;11.50;66.28
69436;SHT31;56625;54.322;18.582;2023-04-25T08:57:52;11.59;66.31
69436;SHT31;56625;54.322;18.582;2023-04-25T09:00:22;11.70;65.61
69436;SHT31;56625;54.322;18.582;2023-04-25T09:02:51;11.79;65.52
69436;SHT31;56625;54.322;18.582;2023-04-25T09:05:20;11.83;65.50
69436;SHT31;56625;54.322;18.582;2023-04-25T09:07:48;11.85;65.83
69436;SHT31;56625;54.322;18.582;2023-04-25T09:10:17;11.85;65.83
69436;SHT31;56625;54.322;18.582;2023-04-25T09:12:51;11.84;65.44
69436;SHT31;56625;54.322;18.582;2023-04-25T09:15:48;11.93;65.99
69436;SHT31;56625;54.322;18.582;2023-04-25T09:18:25;12.05;65.07
69436;SHT31;56625;54.322;18.582;2023-04-25T09:21:07;12.08;65.53
69436;SHT31;56625;54.322;18.582;2023-04-25T09:23:46;12.11;65.82
69436;SHT31;56625;54.322;18.582;2023-04-25T09:26:16;12.03;65.53
69436;SHT31;56625;54.322;18.582;2023-04-25T09:28:47;11.94;65.60
69436;SHT31;56625;54.322;18.582;2023-04-25T09:31:21;11.83;65.61
69436;SHT31;56625;54.322;18.582;2023-04-25T09:33:58;11.73;65.81
69436;SHT31;56625;54.322;18.582;2023-04-25T09:36:29;11.57;66.11
69436;SHT31;56625;54.322;18.582;2023-04-25T09:38:58;11.42;66.55
69436;SHT31;56625;54.322;18.582;2023-04-25T09:41:28;11.30;66.47
69436;SHT31;56625;54.322;18.582;2023-04-25T09:43:56;11.28;66.74
69436;SHT31;56625;54.322;18.582;2023-04-25T09:46:35;11.26;66.28
69436;SHT31;56625;54.322;18.582;2023-04-25T09:49:07;11.25;66.25
69436;SHT31;56625;54.322;18.582;2023-04-25T09:51:35;11.25;66.85
69436;SHT31;56625;54.322;18.582;2023-04-25T09:54:03;11.25;66.92
69436;SHT31;56625;54.322;18.582;2023-04-25T09:56:31;11.26;67.24
69436;SHT31;56625;54.322;18.582;2023-04-25T09:59:05;11.30;67.24
69436;SHT31;56625;54.322;18.582;2023-04-25T10:01:34;11.31;66.90
69436;SHT31;56625;54.322;18.582;2023-04-25T10:04:08;11.32;66.78
69436;SHT31;56625;54.322;18.582;2023-04-25T10:06:39;11.36;67.32
69436;SHT31;56625;54.322;18.582;2023-04-25T10:09:11;11.43;67.28
69436;SHT31;56625;54.322;18.582;2023-04-25T10:11:41;11.56;67.26
69436;SHT31;56625;54.322;18.582;2023-04-25T10:14:11;11.68;67.27
69436;SHT31;56625;54.322;18.582;2023-04-25T10:16:41;11.80;66.97
69436;SHT31;56625;54.322;18.582;2023-04-25T10:19:10;11.93;66.46
69436;SHT31;56625;54.322;18.582;2023-04-25T10:24:50;12.01;65.80
69436;SHT31;56625;54.322;18.582;2023-04-25T10:27:19;12.02;65.81
69436;SHT31;56625;54.322;18.582;2023-04-25T10:30:00;12.01;65.34
69436;SHT31;56625;54.322;18.582;2023-04-25T10:32:36;12.05;65.80
69436;SHT31;56625;54.322;18.582;2023-04-25T10:35:15;12.06;65.26
69436;SHT31;56625;54.322;18.582;2023-04-25T10:37:58;12.00;65.19
69436;SHT31;56625;54.322;18.582;2023-04-25T10:40:37;11.95;64.94
69436;SHT31;56625;54.322;18.582;2023-04-25T10:46:16;11.83;64.18
69436;SHT31;56625;54.322;18.582;2023-04-25T10:48:52;11.78;64.75
69436;SHT31;56625;54.322;18.582;2023-04-25T10:51:23;11.73;65.12
69436;SHT31;56625;54.322;18.582;2023-04-25T10:53:59;11.67;65.11
69436;SHT31;56625;54.322;18.582;2023-04-25T10:56:31;11.66;65.38
69436;SHT31;56625;54.322;18.582;2023-04-25T10:59:10;11.68;65.31
69436;SHT31;56625;54.322;18.582;2023-04-25T11:04:28;11.63;65.58
69436;SHT31;56625;54.322;18.582;2023-04-25T11:07:07;11.63;65.64
69436;SHT31;56625;54.322;18.582;2023-04-25T11:09:38;11.63;65.11
69436;SHT31;56625;54.322;18.582;2023-04-25T11:12:08;11.63;65.38
69436;SHT31;56625;54.322;18.582;2023-04-25T11:14:39;11.69;65.60
69436;SHT31;56625;54.322;18.582;2023-04-25T11:17:12;11.72;65.31
69436;SHT31;56625;54.322;18.582;2023-04-25T11:19:41;11.77;65.75
69436;SHT31;56625;54.322;18.582;2023-04-25T11:22:09;11.82;65.85
69436;SHT31;56625;54.322;18.582;2023-04-25T11:24:38;11.89;65.55
69436;SHT31;56625;54.322;18.582;2023-04-25T11:27:06;11.90;64.27
69436;SHT31;56625;54.322;18.582;2023-04-25T11:29:34;11.90;63.50
69436;SHT31;56625;54.322;18.582;2023-04-25T11:32:02;11.88;63.19
69436;SHT31;56625;54.322;18.582;2023-04-25T11:34:31;11.88;63.17
69436;SHT31;56625;54.322;18.582;2023-04-25T11:37:01;11.90;63.28
69436;SHT31;56625;54.322;18.582;2023-04-25T11:39:31;11.89;62.56
69436;SHT31;56625;54.322;18.582;2023-04-25T11:41:59;11.91;63.09
69436;SHT31;56625;54.322;18.582;2023-04-25T11:44:35;11.96;62.95
69436;SHT31;56625;54.322;18.582;2023-04-25T11:47:04;12.02;62.88
69436;SHT31;56625;54.322;18.582;2023-04-25T11:49:32;12.04;62.06
69436;SHT31;56625;54.322;18.582;2023-04-25T11:52:01;12.06;62.18
69436;SHT31;56625;54.322;18.582;2023-04-25T11:54:28;12.09;62.45
69436;SHT31;56625;54.322;18.582;2023-04-25T11:56:56;12.08;62.46
69436;SHT31;56625;54.322;18.582;2023-04-25T11:59:24;12.02;62.74
69436;SHT31;56625;54.322;18.582;2023-04-25T12:01:54;11.99;63.18
69436;SHT31;56625;54.322;18.582;2023-04-25T12:04:22;11.99;62.04
69436;SHT31;56625;54.322;18.582;2023-04-25T12:06:53;11.92;60.30
69436;SHT31;56625;54.322;18.582;2023-04-25T12:09:30;11.85;60.21
69436;SHT31;56625;54.322;18.582;2023-04-25T12:12:00;11.83;60.14
69436;SHT31;56625;54.322;18.582;2023-04-25T12:14:32;11.80;60.14
69436;SHT31;56625;54.322;18.582;2023-04-25T12:17:03;11.80;60.25
69436;SHT31;56625;54.322;18.582;2023-04-25T12:19:36;11.82;60.30
69436;SHT31;56625;54.322;18.582;2023-04-25T12:22:21;11.85;60.26
69436;SHT31;56625;54.322;18.582;2023-04-25T12:24:51;11.90;59.65
69436;SHT31;56625;54.322;18.582;2023-04-25T12:27:21;11.91;59.54
69436;SHT31;56625;54.322;18.582;2023-04-25T12:29:54;11.98;59.92
69436;SHT31;56625;54.322;18.582;2023-04-25T12:32:23;12.08;59.58
69436;SHT31;56625;54.322;18.582;2023-04-25T12:34:53;12.11;60.02
69436;SHT31;56625;54.322;18.582;2023-04-25T12:37:22;12.10;60.11
69436;SHT31;56625;54.322;18.582;2023-04-25T12:39:49;12.03;60.05
69436;SHT31;56625;54.322;18.582;2023-04-25T12:42:18;11.96;60.29
69436;SHT31;56625;54.322;18.582;2023-04-25T12:44:46;11.91;60.51
69436;SHT31;56625;54.322;18.582;2023-04-25T12:47:14;11.87;61.26
69436;SHT31;56625;54.322;18.582;2023-04-25T12:49:42;11.82;61.43
69436;SHT31;56625;54.322;18.582;2023-04-25T12:52:10;11.78;61.95
69436;SHT31;56625;54.322;18.582;2023-04-25T12:54:38;11.76;62.09
69436;SHT31;56625;54.322;18.582;2023-04-25T12:57:06;11.70;62.52
69436;SHT31;56625;54.322;18.582;2023-04-25T12:59:34;11.64;62.72
69436;SHT31;56625;54.322;18.582;2023-04-25T13:02:01;11.60;62.97
69436;SHT31;56625;54.322;18.582;2023-04-25T13:04:30;11.58;63.18
69436;SHT31;56625;54.322;18.582;2023-04-25T13:06:58;11.60;63.45
69436;SHT31;56625;54.322;18.582;2023-04-25T13:09:26;11.64;63.80
69436;SHT31;56625;54.322;18.582;2023-04-25T13:11:54;11.74;63.78
69436;SHT31;56625;54.322;18.582;2023-04-25T13:14:25;11.85;63.64
69436;SHT31;56625;54.322;18.582;2023-04-25T13:16:53;11.96;63.41
69436;SHT31;56625;54.322;18.582;2023-04-25T13:19:22;12.07;63.32
69436;SHT31;56625;54.322;18.582;2023-04-25T13:21:49;12.18;63.40
69436;SHT31;56625;54.322;18.582;2023-04-25T13:24:18;12.25;62.88
69436;SHT31;56625;54.322;18.582;2023-04-25T13:26:46;12.25;62.49
69436;SHT31;56625;54.322;18.582;2023-04-25T13:29:13;12.23;62.66
69436;SHT31;56625;54.322;18.582;2023-04-25T13:31:41;12.23;62.62
69436;SHT31;56625;54.322;18.582;2023-04-25T13:34:09;12.24;62.83
69436;SHT31;56625;54.322;18.582;2023-04-25T13:36:40;12.27;62.53
69436;SHT31;56625;54.322;18.582;2023-04-25T13:39:08;12.23;62.43
69436;SHT31;56625;54.322;18.582;2023-04-25T13:41:35;12.23;62.68
69436;SHT31;56625;54.322;18.582;2023-04-25T13:44:04;12.27;62.73
69436;SHT31;56625;54.322;18.582;2023-04-25T13:46:32;12.33;62.68
69436;SHT31;56625;54.322;18.582;2023-04-25T13:49:13;12.34;62.44
69436;SHT31;56625;54.322;18.582;2023-04-25T13:51:41;12.35;62.74
69436;SHT31;56625;54.322;18.582;2023-04-25T13:54:10;12.33;62.54
69436;SHT31;56625;54.322;18.582;2023-04-25T13:56:38;12.35;62.73
69436;SHT31;56625;54.322;18.582;2023-04-25T13:59:06;12.41;62.67
69436;SHT31;56625;54.322;18.582;2023-04-25T14:01:33;12.44;62.44
69436;SHT31;56625;54.322;18.582;2023-04-25T14:04:03;12.50;62.43
69436;SHT31;56625;54.322;18.582;2023-04-25T14:06:32;12.51;62.09
69436;SHT31;56625;54.322;18.582;2023-04-25T14:09:01;12.52;62.10
69436;SHT31;56625;54.322;18.582;2023-04-25T14:11:31;12.54;62.15
69436;SHT31;56625;54.322;18.582;2023-04-25T14:13:59;12.58;62.14
69436;SHT31;56625;54.322;18.582;2023-04-25T14:16:29;12.57;61.91
69436;SHT31;56625;54.322;18.582;2023-04-25T14:18:59;12.53;62.21
69436;SHT31;56625;54.322;18.582;2023-04-25T14:21:27;12.46;62.49
69436;SHT31;56625;54.322;18.582;2023-04-25T14:23:55;12.39;62.71
69436;SHT31;56625;54.322;18.582;2023-04-25T14:26:24;12.35;62.99
69436;SHT31;56625;54.322;18.582;2023-04-25T14:28:52;12.32;62.91
69436;SHT31;56625;54.322;18.582;2023-04-25T14:31:20;12.28;62.85
69436;SHT31;56625;54.322;18.582;2023-04-25T14:33:48;12.17;62.79
69436;SHT31;56625;54.322;18.582;2023-04-25T14:36:17;12.07;62.98
69436;SHT31;56625;54.322;18.582;2023-04-25T14:38:45;11.85;62.01
69436;SHT31;56625;54.322;18.582;2023-04-25T14:41:13;11.53;62.19
69436;SHT31;56625;54.322;18.582;2023-04-25T14:43:44;11.21;63.08
69436;SHT31;56625;54.322;18.582;2023-04-25T14:46:12;10.97;63.92
69436;SHT31;56625;54.322;18.582;2023-04-25T14:48:40;10.77;64.32
69436;SHT31;56625;54.322;18.582;2023-04-25T14:51:08;10.64;64.57
69436;SHT31;56625;54.322;18.582;2023-04-25T14:53:36;10.51;64.75
69436;SHT31;56625;54.322;18.582;2023-04-25T14:56:04;10.39;65.07
69436;SHT31;56625;54.322;18.582;2023-04-25T14:58:32;10.26;65.49
69436;SHT31;56625;54.322;18.582;2023-04-25T15:01:00;10.15;65.51
69436;SHT31;56625;54.322;18.582;2023-04-25T15:03:28;10.04;65.62
69436;SHT31;56625;54.322;18.582;2023-04-25T15:05:57;9.96;65.67
69436;SHT31;56625;54.322;18.582;2023-04-25T15:08:24;9.88;65.87
69436;SHT31;56625;54.322;18.582;2023-04-25T15:11:00;9.78;64.43
69436;SHT31;56625;54.322;18.582;2023-04-25T15:13:29;9.69;64.07
69436;SHT31;56625;54.322;18.582;2023-04-25T15:16:06;9.61;64.19
69436;SHT31;56625;54.322;18.582;2023-04-25T15:18:35;9.57;63.84
69436;SHT31;56625;54.322;18.582;2023-04-25T15:21:03;9.55;64.00
69436;SHT31;56625;54.322;18.582;2023-04-25T15:23:31;9.51;63.75
69436;SHT31;56625;54.322;18.582;2023-04-25T15:25:59;9.50;63.60
69436;SHT31;56625;54.322;18.582;2023-04-25T15:28:27;9.47;63.57
69436;SHT31;56625;54.322;18.582;2023-04-25T15:30:55;9.42;63.29
69436;SHT31;56625;54.322;18.582;2023-04-25T15:33:23;9.40;63.81
69436;SHT31;56625;54.322;18.582;2023-04-25T15:35:51;9.40;63.86
69436;SHT31;56625;54.322;18.582;2023-04-25T15:38:18;9.39;64.10
69436;SHT31;56625;54.322;18.582;2023-04-25T15:40:46;9.38;63.85